sensor_id;sensor_type;location;lat;lon;timestamp;P1;durP1;ratioP1;P2;durP2;ratioP2
21000;SDS011;10658;50.920;12.238;2024-01-30T00:03:20;8.32;;;4.57;;
21000;SDS011;10658;50.920;12.238;2024-01-30T00:07:21;8.18;;;4.13;;
21000;SDS011;10658;50.920;12.238;2024-01-30T00:11:22;6.88;;;4.30;;
21000;SDS011;10658;50.920;12.238;2024-01-30T00:15:25;6.82;;;4.25;;
21000;SDS011;10658;50.920;12.238;2024-01-30T00:19:26;8.57;;;4.30;;
21000;SDS011;10658;50.920;12.238;2024-01-30T00:23:27;6.20;;;3.90;;
21000;SDS011;10658;50.920;12.238;2024-01-30T00:27:27;8.93;;;4.47;;
21000;SDS011;10658;50.920;12.238;2024-01-30T00:31:28;6.63;;;4.18;;
21000;SDS011;10658;50.920;12.238;2024-01-30T00:35:29;5.45;;;3.92;;
21000;SDS011;10658;50.920;12.238;2024-01-30T00:39:30;6.43;;;3.78;;
21000;SDS011;10658;50.920;12.238;2024-01-30T00:43:31;5.50;;;3.50;;
21000;SDS011;10658;50.920;12.238;2024-01-30T00:47:31;6.93;;;4.00;;
21000;SDS011;10658;50.920;12.238;2024-01-30T00:51:33;5.47;;;3.63;;
21000;SDS011;10658;50.920;12.238;2024-01-30T00:55:34;9.98;;;4.40;;
21000;SDS011;10658;50.920;12.238;2024-01-30T00:59:35;4.68;;;3.67;;
21000;SDS011;10658;50.920;12.238;2024-01-30T01:03:36;6.75;;;4.60;;
21000;SDS011;10658;50.920;12.238;2024-01-30T01:07:37;8.57;;;4.05;;
21000;SDS011;10658;50.920;12.238;2024-01-30T01:11:37;5.47;;;3.45;;
21000;SDS011;10658;50.920;12.238;2024-01-30T01:15:38;11.15;;;4.10;;
21000;SDS011;10658;50.920;12.238;2024-01-30T01:19:39;7.63;;;3.80;;
21000;SDS011;10658;50.920;12.238;2024-01-30T01:23:40;6.80;;;4.32;;
21000;SDS011;10658;50.920;12.238;2024-01-30T01:27:41;6.07;;;3.75;;
21000;SDS011;10658;50.920;12.238;2024-01-30T01:31:43;9.43;;;4.93;;
21000;SDS011;10658;50.920;12.238;2024-01-30T01:35:43;6.22;;;3.70;;
21000;SDS011;10658;50.920;12.238;2024-01-30T01:39:44;6.32;;;3.30;;
21000;SDS011;10658;50.920;12.238;2024-01-30T01:43:45;5.90;;;4.68;;
21000;SDS011;10658;50.920;12.238;2024-01-30T01:47:55;7.30;;;3.97;;
21000;SDS011;10658;50.920;12.238;2024-01-30T01:51:56;6.82;;;4.03;;
21000;SDS011;10658;50.920;12.238;2024-01-30T01:55:58;6.50;;;3.72;;
21000;SDS011;10658;50.920;12.238;2024-01-30T01:59:59;6.90;;;4.03;;
21000;SDS011;10658;50.920;12.238;2024-01-30T02:04:01;9.40;;;4.38;;
21000;SDS011;10658;50.920;12.238;2024-01-30T02:08:02;6.70;;;4.00;;
21000;SDS011;10658;50.920;12.238;2024-01-30T02:12:03;6.10;;;4.22;;
21000;SDS011;10658;50.920;12.238;2024-01-30T02:16:05;5.85;;;3.88;;
21000;SDS011;10658;50.920;12.238;2024-01-30T02:20:06;6.15;;;4.07;;
21000;SDS011;10658;50.920;12.238;2024-01-30T02:24:07;6.70;;;3.75;;
21000;SDS011;10658;50.920;12.238;2024-01-30T02:28:07;5.18;;;3.47;;
21000;SDS011;10658;50.920;12.238;2024-01-30T02:32:08;6.00;;;3.45;;
21000;SDS011;10658;50.920;12.238;2024-01-30T02:36:09;5.55;;;3.67;;
21000;SDS011;10658;50.920;12.238;2024-01-30T02:40:10;7.57;;;3.78;;
21000;SDS011;10658;50.920;12.238;2024-01-30T02:44:10;5.85;;;3.45;;
21000;SDS011;10658;50.920;12.238;2024-01-30T02:48:11;6.13;;;3.70;;
21000;SDS011;10658;50.920;12.238;2024-01-30T02:52:12;6.07;;;3.53;;
21000;SDS011;10658;50.920;12.238;2024-01-30T02:56:13;6.18;;;3.80;;
21000;SDS011;10658;50.920;12.238;2024-01-30T03:00:14;5.43;;;4.03;;
21000;SDS011;10658;50.920;12.238;2024-01-30T03:04:15;6.85;;;4.05;;
21000;SDS011;10658;50.920;12.238;2024-01-30T03:08:16;8.63;;;4.30;;
21000;SDS011;10658;50.920;12.238;2024-01-30T03:12:16;6.90;;;3.80;;
21000;SDS011;10658;50.920;12.238;2024-01-30T03:16:17;6.65;;;4.03;;
21000;SDS011;10658;50.920;12.238;2024-01-30T03:20:18;8.73;;;4.25;;
21000;SDS011;10658;50.920;12.238;2024-01-30T03:24:19;5.07;;;3.85;;
21000;SDS011;10658;50.920;12.238;2024-01-30T03:28:20;7.22;;;4.20;;
21000;SDS011;10658;50.920;12.238;2024-01-30T03:32:21;5.60;;;3.83;;
21000;SDS011;10658;50.920;12.238;2024-01-30T03:36:23;6.95;;;4.03;;
21000;SDS011;10658;50.920;12.238;2024-01-30T03:40:24;5.22;;;3.70;;
21000;SDS011;10658;50.920;12.238;2024-01-30T03:44:24;7.15;;;3.97;;
21000;SDS011;10658;50.920;12.238;2024-01-30T03:48:25;9.02;;;4.65;;
21000;SDS011;10658;50.920;12.238;2024-01-30T03:52:26;7.72;;;3.78;;
21000;SDS011;10658;50.920;12.238;2024-01-30T03:56:27;6.03;;;3.78;;
21000;SDS011;10658;50.920;12.238;2024-01-30T04:00:28;5.93;;;3.78;;
21000;SDS011;10658;50.920;12.238;2024-01-30T04:04:29;8.98;;;4.18;;
21000;SDS011;10658;50.920;12.238;2024-01-30T04:08:30;7.28;;;4.55;;
21000;SDS011;10658;50.920;12.238;2024-01-30T04:12:31;6.50;;;3.60;;
21000;SDS011;10658;50.920;12.238;2024-01-30T04:16:32;6.15;;;3.63;;
21000;SDS011;10658;50.920;12.238;2024-01-30T04:20:32;9.15;;;4.43;;
21000;SDS011;10658;50.920;12.238;2024-01-30T04:24:33;6.88;;;4.75;;
21000;SDS011;10658;50.920;12.238;2024-01-30T04:28:34;7.30;;;4.38;;
21000;SDS011;10658;50.920;12.238;2024-01-30T04:32:35;11.25;;;4.53;;
21000;SDS011;10658;50.920;12.238;2024-01-30T04:36:36;7.35;;;3.78;;
21000;SDS011;10658;50.920;12.238;2024-01-30T04:40:37;7.80;;;4.25;;
21000;SDS011;10658;50.920;12.238;2024-01-30T04:44:38;7.40;;;4.07;;
21000;SDS011;10658;50.920;12.238;2024-01-30T04:48:39;8.35;;;4.22;;
21000;SDS011;10658;50.920;12.238;2024-01-30T04:52:40;7.97;;;4.55;;
21000;SDS011;10658;50.920;12.238;2024-01-30T04:56:41;8.60;;;4.50;;
21000;SDS011;10658;50.920;12.238;2024-01-30T05:00:42;5.90;;;4.00;;
21000;SDS011;10658;50.920;12.238;2024-01-30T05:04:42;8.18;;;4.28;;
21000;SDS011;10658;50.920;12.238;2024-01-30T05:08:43;6.78;;;4.50;;
21000;SDS011;10658;50.920;12.238;2024-01-30T05:12:44;13.10;;;4.60;;
21000;SDS011;10658;50.920;12.238;2024-01-30T05:16:45;7.60;;;3.90;;
21000;SDS011;10658;50.920;12.238;2024-01-30T05:20:47;7.28;;;3.72;;
21000;SDS011;10658;50.920;12.238;2024-01-30T05:24:48;5.30;;;3.78;;
21000;SDS011;10658;50.920;12.238;2024-01-30T05:28:48;8.30;;;4.68;;
21000;SDS011;10658;50.920;12.238;2024-01-30T05:32:49;6.82;;;4.85;;
21000;SDS011;10658;50.920;12.238;2024-01-30T05:36:50;6.30;;;4.85;;
21000;SDS011;10658;50.920;12.238;2024-01-30T05:40:51;9.90;;;4.88;;
21000;SDS011;10658;50.920;12.238;2024-01-30T05:44:52;9.48;;;6.15;;
21000;SDS011;10658;50.920;12.238;2024-01-30T05:48:53;6.85;;;4.00;;
21000;SDS011;10658;50.920;12.238;2024-01-30T05:52:53;7.40;;;4.95;;
21000;SDS011;10658;50.920;12.238;2024-01-30T05:56:54;10.63;;;5.28;;
21000;SDS011;10658;50.920;12.238;2024-01-30T06:00:55;8.93;;;4.95;;
21000;SDS011;10658;50.920;12.238;2024-01-30T06:04:56;9.13;;;5.20;;
21000;SDS011;10658;50.920;12.238;2024-01-30T06:08:57;6.45;;;4.70;;
21000;SDS011;10658;50.920;12.238;2024-01-30T06:12:58;10.10;;;5.07;;
21000;SDS011;10658;50.920;12.238;2024-01-30T06:16:59;6.55;;;4.30;;
21000;SDS011;10658;50.920;12.238;2024-01-30T06:21:00;6.88;;;4.75;;
21000;SDS011;10658;50.920;12.238;2024-01-30T06:25:01;8.13;;;4.63;;
21000;SDS011;10658;50.920;12.238;2024-01-30T06:29:02;8.68;;;4.80;;
21000;SDS011;10658;50.920;12.238;2024-01-30T06:33:03;9.85;;;4.90;;
21000;SDS011;10658;50.920;12.238;2024-01-30T06:37:04;7.32;;;4.57;;
21000;SDS011;10658;50.920;12.238;2024-01-30T06:41:04;7.88;;;4.03;;
21000;SDS011;10658;50.920;12.238;2024-01-30T06:45:05;8.90;;;4.25;;
21000;SDS011;10658;50.920;12.238;2024-01-30T06:49:08;11.30;;;4.50;;
21000;SDS011;10658;50.920;12.238;2024-01-30T06:53:08;7.55;;;4.85;;
21000;SDS011;10658;50.920;12.238;2024-01-30T06:57:09;9.45;;;4.65;;
21000;SDS011;10658;50.920;12.238;2024-01-30T07:01:12;10.00;;;4.72;;
21000;SDS011;10658;50.920;12.238;2024-01-30T07:05:12;9.77;;;4.57;;
21000;SDS011;10658;50.920;12.238;2024-01-30T07:09:14;9.00;;;4.75;;
21000;SDS011;10658;50.920;12.238;2024-01-30T07:13:15;7.30;;;4.85;;
21000;SDS011;10658;50.920;12.238;2024-01-30T07:17:16;7.35;;;4.70;;
21000;SDS011;10658;50.920;12.238;2024-01-30T07:21:17;7.80;;;5.10;;
21000;SDS011;10658;50.920;12.238;2024-01-30T07:25:18;7.90;;;4.68;;
21000;SDS011;10658;50.920;12.238;2024-01-30T07:29:19;8.98;;;4.80;;
21000;SDS011;10658;50.920;12.238;2024-01-30T07:33:20;11.00;;;5.70;;
21000;SDS011;10658;50.920;12.238;2024-01-30T07:37:21;8.00;;;5.60;;
21000;SDS011;10658;50.920;12.238;2024-01-30T07:41:22;10.63;;;5.45;;
21000;SDS011;10658;50.920;12.238;2024-01-30T07:45:25;10.38;;;4.40;;
21000;SDS011;10658;50.920;12.238;2024-01-30T07:49:27;9.35;;;5.70;;
21000;SDS011;10658;50.920;12.238;2024-01-30T07:53:28;9.23;;;5.10;;
21000;SDS011;10658;50.920;12.238;2024-01-30T07:57:29;12.63;;;5.47;;
21000;SDS011;10658;50.920;12.238;2024-01-30T08:01:30;12.63;;;5.00;;
21000;SDS011;10658;50.920;12.238;2024-01-30T08:05:31;10.02;;;5.65;;
21000;SDS011;10658;50.920;12.238;2024-01-30T08:09:32;9.00;;;5.80;;
21000;SDS011;10658;50.920;12.238;2024-01-30T08:13:33;7.30;;;5.15;;
21000;SDS011;10658;50.920;12.238;2024-01-30T08:17:33;11.02;;;7.22;;
21000;SDS011;10658;50.920;12.238;2024-01-30T08:21:34;8.18;;;5.88;;
21000;SDS011;10658;50.920;12.238;2024-01-30T08:25:36;11.85;;;5.72;;
21000;SDS011;10658;50.920;12.238;2024-01-30T08:29:37;9.93;;;7.10;;
21000;SDS011;10658;50.920;12.238;2024-01-30T08:33:38;7.25;;;5.00;;
21000;SDS011;10658;50.920;12.238;2024-01-30T08:37:39;9.55;;;6.45;;
21000;SDS011;10658;50.920;12.238;2024-01-30T08:41:40;11.23;;;6.20;;
21000;SDS011;10658;50.920;12.238;2024-01-30T08:45:41;6.60;;;4.95;;
21000;SDS011;10658;50.920;12.238;2024-01-30T08:49:43;9.55;;;5.63;;
21000;SDS011;10658;50.920;12.238;2024-01-30T08:53:44;7.95;;;5.25;;
21000;SDS011;10658;50.920;12.238;2024-01-30T08:57:45;10.40;;;5.80;;
21000;SDS011;10658;50.920;12.238;2024-01-30T09:01:46;9.25;;;5.57;;
21000;SDS011;10658;50.920;12.238;2024-01-30T09:07:18;10.27;;;5.80;;
21000;SDS011;10658;50.920;12.238;2024-01-30T09:11:19;9.77;;;6.03;;
21000;SDS011;10658;50.920;12.238;2024-01-30T09:15:20;12.02;;;7.13;;
21000;SDS011;10658;50.920;12.238;2024-01-30T09:19:21;24.00;;;12.85;;
21000;SDS011;10658;50.920;12.238;2024-01-30T09:23:22;18.63;;;10.90;;
21000;SDS011;10658;50.920;12.238;2024-01-30T09:27:22;12.23;;;6.70;;
21000;SDS011;10658;50.920;12.238;2024-01-30T09:31:23;14.13;;;7.80;;
21000;SDS011;10658;50.920;12.238;2024-01-30T09:35:24;13.82;;;6.30;;
21000;SDS011;10658;50.920;12.238;2024-01-30T09:39:25;11.57;;;8.88;;
21000;SDS011;10658;50.920;12.238;2024-01-30T09:43:26;11.13;;;6.47;;
21000;SDS011;10658;50.920;12.238;2024-01-30T09:47:43;11.25;;;5.88;;
21000;SDS011;10658;50.920;12.238;2024-01-30T09:51:45;12.68;;;5.60;;
21000;SDS011;10658;50.920;12.238;2024-01-30T09:55:46;10.68;;;6.85;;
21000;SDS011;10658;50.920;12.238;2024-01-30T09:59:47;10.73;;;6.50;;
21000;SDS011;10658;50.920;12.238;2024-01-30T10:03:50;11.75;;;6.40;;
21000;SDS011;10658;50.920;12.238;2024-01-30T10:07:52;12.55;;;9.02;;
21000;SDS011;10658;50.920;12.238;2024-01-30T10:11:55;14.00;;;8.32;;
21000;SDS011;10658;50.920;12.238;2024-01-30T10:15:55;10.00;;;6.75;;
21000;SDS011;10658;50.920;12.238;2024-01-30T10:19:58;11.63;;;6.38;;
21000;SDS011;10658;50.920;12.238;2024-01-30T10:23:58;10.82;;;7.05;;
21000;SDS011;10658;50.920;12.238;2024-01-30T10:27:59;12.00;;;7.05;;
21000;SDS011;10658;50.920;12.238;2024-01-30T10:32:06;20.77;;;11.75;;
21000;SDS011;10658;50.920;12.238;2024-01-30T10:36:07;10.07;;;7.05;;
21000;SDS011;10658;50.920;12.238;2024-01-30T10:40:08;16.13;;;10.70;;
21000;SDS011;10658;50.920;12.238;2024-01-30T10:44:12;15.95;;;8.90;;
21000;SDS011;10658;50.920;12.238;2024-01-30T10:48:18;23.02;;;10.13;;
21000;SDS011;10658;50.920;12.238;2024-01-30T10:52:24;26.92;;;13.00;;
21000;SDS011;10658;50.920;12.238;2024-01-30T10:56:26;25.75;;;13.27;;
21000;SDS011;10658;50.920;12.238;2024-01-30T11:00:27;12.02;;;7.53;;
21000;SDS011;10658;50.920;12.238;2024-01-30T11:04:35;15.43;;;8.32;;
21000;SDS011;10658;50.920;12.238;2024-01-30T11:08:37;11.85;;;7.18;;
21000;SDS011;10658;50.920;12.238;2024-01-30T11:12:38;9.80;;;6.60;;
21000;SDS011;10658;50.920;12.238;2024-01-30T11:16:46;10.77;;;6.20;;
21000;SDS011;10658;50.920;12.238;2024-01-30T11:20:48;10.82;;;6.55;;
21000;SDS011;10658;50.920;12.238;2024-01-30T11:24:49;15.52;;;8.65;;
21000;SDS011;10658;50.920;12.238;2024-01-30T11:28:52;12.98;;;7.90;;
21000;SDS011;10658;50.920;12.238;2024-01-30T11:33:08;9.48;;;6.60;;
21000;SDS011;10658;50.920;12.238;2024-01-30T11:37:11;11.25;;;6.78;;
21000;SDS011;10658;50.920;12.238;2024-01-30T11:41:13;14.93;;;8.35;;
21000;SDS011;10658;50.920;12.238;2024-01-30T11:45:17;12.23;;;7.80;;
21000;SDS011;10658;50.920;12.238;2024-01-30T11:49:18;11.90;;;7.88;;
21000;SDS011;10658;50.920;12.238;2024-01-30T11:53:19;13.63;;;8.52;;
21000;SDS011;10658;50.920;12.238;2024-01-30T11:57:20;14.73;;;8.07;;
21000;SDS011;10658;50.920;12.238;2024-01-30T12:01:20;12.90;;;9.02;;
21000;SDS011;10658;50.920;12.238;2024-01-30T12:05:21;18.98;;;7.63;;
21000;SDS011;10658;50.920;12.238;2024-01-30T12:09:26;12.23;;;8.00;;
21000;SDS011;10658;50.920;12.238;2024-01-30T12:13:28;16.25;;;11.20;;
21000;SDS011;10658;50.920;12.238;2024-01-30T12:17:30;12.43;;;7.35;;
21000;SDS011;10658;50.920;12.238;2024-01-30T12:21:33;10.90;;;7.35;;
21000;SDS011;10658;50.920;12.238;2024-01-30T12:25:34;10.50;;;7.72;;
21000;SDS011;10658;50.920;12.238;2024-01-30T12:29:35;15.85;;;8.30;;
21000;SDS011;10658;50.920;12.238;2024-01-30T12:33:35;17.02;;;7.50;;
21000;SDS011;10658;50.920;12.238;2024-01-30T12:37:36;24.33;;;12.75;;
21000;SDS011;10658;50.920;12.238;2024-01-30T12:41:38;22.83;;;12.52;;
21000;SDS011;10658;50.920;12.238;2024-01-30T12:45:39;17.35;;;10.80;;
21000;SDS011;10658;50.920;12.238;2024-01-30T12:49:41;12.82;;;8.25;;
21000;SDS011;10658;50.920;12.238;2024-01-30T12:53:43;11.07;;;8.00;;
21000;SDS011;10658;50.920;12.238;2024-01-30T12:57:43;16.48;;;8.70;;
21000;SDS011;10658;50.920;12.238;2024-01-30T13:01:44;14.98;;;8.43;;
21000;SDS011;10658;50.920;12.238;2024-01-30T13:05:46;10.00;;;7.22;;
21000;SDS011;10658;50.920;12.238;2024-01-30T13:09:46;14.65;;;7.30;;
21000;SDS011;10658;50.920;12.238;2024-01-30T13:13:47;14.52;;;7.60;;
21000;SDS011;10658;50.920;12.238;2024-01-30T13:17:48;15.88;;;8.40;;
21000;SDS011;10658;50.920;12.238;2024-01-30T13:21:50;16.88;;;10.43;;
21000;SDS011;10658;50.920;12.238;2024-01-30T13:25:51;11.32;;;6.20;;
21000;SDS011;10658;50.920;12.238;2024-01-30T13:29:54;10.55;;;6.55;;
21000;SDS011;10658;50.920;12.238;2024-01-30T13:33:54;11.35;;;5.00;;
21000;SDS011;10658;50.920;12.238;2024-01-30T13:37:55;7.22;;;4.95;;
21000;SDS011;10658;50.920;12.238;2024-01-30T13:41:56;9.02;;;5.20;;
21000;SDS011;10658;50.920;12.238;2024-01-30T13:45:57;7.88;;;5.07;;
21000;SDS011;10658;50.920;12.238;2024-01-30T13:49:57;10.68;;;5.22;;
21000;SDS011;10658;50.920;12.238;2024-01-30T13:53:58;9.23;;;4.30;;
21000;SDS011;10658;50.920;12.238;2024-01-30T13:57:59;8.48;;;5.07;;
21000;SDS011;10658;50.920;12.238;2024-01-30T14:02:01;15.75;;;7.15;;
21000;SDS011;10658;50.920;12.238;2024-01-30T14:06:02;8.15;;;5.70;;
21000;SDS011;10658;50.920;12.238;2024-01-30T14:10:04;11.02;;;6.32;;
21000;SDS011;10658;50.920;12.238;2024-01-30T14:14:06;11.10;;;8.75;;
21000;SDS011;10658;50.920;12.238;2024-01-30T14:18:07;8.52;;;5.93;;
21000;SDS011;10658;50.920;12.238;2024-01-30T14:22:09;7.63;;;5.07;;
21000;SDS011;10658;50.920;12.238;2024-01-30T14:26:09;9.10;;;5.05;;
21000;SDS011;10658;50.920;12.238;2024-01-30T14:30:10;7.38;;;4.55;;
21000;SDS011;10658;50.920;12.238;2024-01-30T14:34:11;6.40;;;4.28;;
21000;SDS011;10658;50.920;12.238;2024-01-30T14:38:14;7.13;;;5.00;;
21000;SDS011;10658;50.920;12.238;2024-01-30T14:42:15;7.30;;;5.60;;
21000;SDS011;10658;50.920;12.238;2024-01-30T14:46:16;10.15;;;5.88;;
21000;SDS011;10658;50.920;12.238;2024-01-30T14:50:17;10.30;;;4.28;;
21000;SDS011;10658;50.920;12.238;2024-01-30T14:54:18;5.93;;;4.88;;
21000;SDS011;10658;50.920;12.238;2024-01-30T14:58:19;9.38;;;5.18;;
21000;SDS011;10658;50.920;12.238;2024-01-30T15:02:26;7.97;;;4.60;;
21000;SDS011;10658;50.920;12.238;2024-01-30T15:06:27;8.52;;;5.13;;
21000;SDS011;10658;50.920;12.238;2024-01-30T15:10:28;9.55;;;5.13;;
21000;SDS011;10658;50.920;12.238;2024-01-30T15:14:29;6.35;;;4.38;;
21000;SDS011;10658;50.920;12.238;2024-01-30T15:18:30;6.22;;;4.30;;
21000;SDS011;10658;50.920;12.238;2024-01-30T15:22:30;9.05;;;5.25;;
21000;SDS011;10658;50.920;12.238;2024-01-30T15:26:31;8.50;;;5.97;;
21000;SDS011;10658;50.920;12.238;2024-01-30T15:30:33;7.97;;;5.13;;
21000;SDS011;10658;50.920;12.238;2024-01-30T15:34:36;9.23;;;5.97;;
21000;SDS011;10658;50.920;12.238;2024-01-30T15:38:37;10.75;;;5.38;;
21000;SDS011;10658;50.920;12.238;2024-01-30T15:42:38;10.18;;;5.20;;
21000;SDS011;10658;50.920;12.238;2024-01-30T15:46:38;8.07;;;5.38;;
21000;SDS011;10658;50.920;12.238;2024-01-30T15:50:40;12.20;;;6.72;;
21000;SDS011;10658;50.920;12.238;2024-01-30T15:59:14;9.82;;;6.20;;
21000;SDS011;10658;50.920;12.238;2024-01-30T16:03:17;10.50;;;6.00;;
21000;SDS011;10658;50.920;12.238;2024-01-30T16:07:18;10.38;;;6.00;;
21000;SDS011;10658;50.920;12.238;2024-01-30T16:11:18;11.20;;;6.28;;
21000;SDS011;10658;50.920;12.238;2024-01-30T16:15:19;7.63;;;5.32;;
21000;SDS011;10658;50.920;12.238;2024-01-30T16:19:20;10.43;;;5.85;;
21000;SDS011;10658;50.920;12.238;2024-01-30T16:23:21;8.57;;;5.30;;
21000;SDS011;10658;50.920;12.238;2024-01-30T16:27:22;7.43;;;4.65;;
21000;SDS011;10658;50.920;12.238;2024-01-30T16:31:23;9.25;;;6.13;;
21000;SDS011;10658;50.920;12.238;2024-01-30T16:35:24;10.55;;;6.28;;
21000;SDS011;10658;50.920;12.238;2024-01-30T16:39:25;11.40;;;6.40;;
21000;SDS011;10658;50.920;12.238;2024-01-30T16:43:26;8.25;;;5.32;;
21000;SDS011;10658;50.920;12.238;2024-01-30T16:47:27;12.05;;;6.22;;
21000;SDS011;10658;50.920;12.238;2024-01-30T16:51:28;10.88;;;6.72;;
21000;SDS011;10658;50.920;12.238;2024-01-30T16:55:30;6.10;;;4.60;;
21000;SDS011;10658;50.920;12.238;2024-01-30T17:04:15;8.43;;;5.13;;
21000;SDS011;10658;50.920;12.238;2024-01-30T17:08:25;6.90;;;4.60;;
21000;SDS011;10658;50.920;12.238;2024-01-30T17:12:26;8.75;;;5.38;;
21000;SDS011;10658;50.920;12.238;2024-01-30T17:16:26;10.90;;;6.15;;
21000;SDS011;10658;50.920;12.238;2024-01-30T17:20:27;8.15;;;5.78;;
21000;SDS011;10658;50.920;12.238;2024-01-30T17:24:28;12.15;;;6.57;;
21000;SDS011;10658;50.920;12.238;2024-01-30T17:28:29;8.73;;;6.05;;
21000;SDS011;10658;50.920;12.238;2024-01-30T17:32:30;15.60;;;6.43;;
21000;SDS011;10658;50.920;12.238;2024-01-30T17:36:31;10.32;;;7.68;;
21000;SDS011;10658;50.920;12.238;2024-01-30T17:40:32;17.63;;;10.00;;
21000;SDS011;10658;50.920;12.238;2024-01-30T17:44:33;14.98;;;8.27;;
21000;SDS011;10658;50.920;12.238;2024-01-30T17:48:36;9.05;;;5.70;;
21000;SDS011;10658;50.920;12.238;2024-01-30T17:52:37;10.80;;;6.63;;
21000;SDS011;10658;50.920;12.238;2024-01-30T17:56:38;6.88;;;5.47;;
21000;SDS011;10658;50.920;12.238;2024-01-30T18:00:39;10.00;;;5.65;;
21000;SDS011;10658;50.920;12.238;2024-01-30T18:04:40;11.85;;;6.45;;
21000;SDS011;10658;50.920;12.238;2024-01-30T18:08:41;7.20;;;5.57;;
21000;SDS011;10658;50.920;12.238;2024-01-30T18:12:41;10.70;;;5.75;;
21000;SDS011;10658;50.920;12.238;2024-01-30T18:16:42;12.57;;;5.95;;
21000;SDS011;10658;50.920;12.238;2024-01-30T18:20:43;9.68;;;6.03;;
21000;SDS011;10658;50.920;12.238;2024-01-30T18:24:44;10.95;;;7.03;;
21000;SDS011;10658;50.920;12.238;2024-01-30T18:28:45;15.13;;;7.93;;
21000;SDS011;10658;50.920;12.238;2024-01-30T18:32:46;12.35;;;6.65;;
21000;SDS011;10658;50.920;12.238;2024-01-30T18:36:48;9.48;;;6.43;;
21000;SDS011;10658;50.920;12.238;2024-01-30T18:40:49;15.10;;;9.52;;
21000;SDS011;10658;50.920;12.238;2024-01-30T18:44:50;9.25;;;7.05;;
21000;SDS011;10658;50.920;12.238;2024-01-30T18:48:51;12.43;;;6.22;;
21000;SDS011;10658;50.920;12.238;2024-01-30T18:52:52;10.80;;;6.97;;
21000;SDS011;10658;50.920;12.238;2024-01-30T18:56:53;9.88;;;5.63;;
21000;SDS011;10658;50.920;12.238;2024-01-30T19:00:54;9.80;;;6.65;;
21000;SDS011;10658;50.920;12.238;2024-01-30T19:04:55;24.45;;;14.70;;
21000;SDS011;10658;50.920;12.238;2024-01-30T19:08:58;13.07;;;8.00;;
21000;SDS011;10658;50.920;12.238;2024-01-30T19:12:59;8.43;;;6.53;;
21000;SDS011;10658;50.920;12.238;2024-01-30T19:17:00;11.43;;;6.75;;
21000;SDS011;10658;50.920;12.238;2024-01-30T19:21:00;10.60;;;6.55;;
21000;SDS011;10658;50.920;12.238;2024-01-30T19:25:02;10.00;;;6.57;;
21000;SDS011;10658;50.920;12.238;2024-01-30T19:29:04;16.23;;;7.18;;
21000;SDS011;10658;50.920;12.238;2024-01-30T19:33:05;17.10;;;8.82;;
21000;SDS011;10658;50.920;12.238;2024-01-30T19:37:07;19.27;;;11.18;;
21000;SDS011;10658;50.920;12.238;2024-01-30T19:41:11;17.48;;;10.23;;
21000;SDS011;10658;50.920;12.238;2024-01-30T19:45:13;18.30;;;11.43;;
21000;SDS011;10658;50.920;12.238;2024-01-30T19:49:14;15.52;;;9.07;;
21000;SDS011;10658;50.920;12.238;2024-01-30T19:53:17;13.38;;;7.75;;
21000;SDS011;10658;50.920;12.238;2024-01-30T19:57:18;9.27;;;6.72;;
21000;SDS011;10658;50.920;12.238;2024-01-30T20:01:19;10.63;;;6.85;;
21000;SDS011;10658;50.920;12.238;2024-01-30T20:05:19;14.73;;;8.55;;
21000;SDS011;10658;50.920;12.238;2024-01-30T20:09:20;10.00;;;7.03;;
21000;SDS011;10658;50.920;12.238;2024-01-30T20:13:23;15.20;;;8.52;;
21000;SDS011;10658;50.920;12.238;2024-01-30T20:17:24;16.92;;;10.95;;
21000;SDS011;10658;50.920;12.238;2024-01-30T20:21:25;11.85;;;7.35;;
21000;SDS011;10658;50.920;12.238;2024-01-30T20:25:26;12.13;;;7.50;;
21000;SDS011;10658;50.920;12.238;2024-01-30T20:29:27;15.38;;;9.55;;
21000;SDS011;10658;50.920;12.238;2024-01-30T20:33:28;13.75;;;8.38;;
21000;SDS011;10658;50.920;12.238;2024-01-30T20:37:28;11.27;;;7.80;;
21000;SDS011;10658;50.920;12.238;2024-01-30T20:41:34;9.93;;;6.28;;
21000;SDS011;10658;50.920;12.238;2024-01-30T20:45:38;11.27;;;7.60;;
21000;SDS011;10658;50.920;12.238;2024-01-30T20:49:39;13.43;;;8.82;;
21000;SDS011;10658;50.920;12.238;2024-01-30T20:53:39;11.23;;;7.10;;
21000;SDS011;10658;50.920;12.238;2024-01-30T20:57:44;10.52;;;6.93;;
21000;SDS011;10658;50.920;12.238;2024-01-30T21:01:44;13.25;;;6.75;;
21000;SDS011;10658;50.920;12.238;2024-01-30T21:05:45;12.82;;;7.65;;
21000;SDS011;10658;50.920;12.238;2024-01-30T21:09:46;9.77;;;6.78;;
21000;SDS011;10658;50.920;12.238;2024-01-30T21:13:48;9.82;;;6.30;;
21000;SDS011;10658;50.920;12.238;2024-01-30T21:17:49;11.18;;;6.68;;
21000;SDS011;10658;50.920;12.238;2024-01-30T21:21:49;13.60;;;9.20;;
21000;SDS011;10658;50.920;12.238;2024-01-30T21:25:50;12.30;;;7.85;;
21000;SDS011;10658;50.920;12.238;2024-01-30T21:29:51;11.77;;;7.60;;
21000;SDS011;10658;50.920;12.238;2024-01-30T21:33:52;15.00;;;8.55;;
21000;SDS011;10658;50.920;12.238;2024-01-30T21:37:54;17.77;;;11.57;;
21000;SDS011;10658;50.920;12.238;2024-01-30T21:41:55;27.92;;;16.20;;
21000;SDS011;10658;50.920;12.238;2024-01-30T21:45:56;22.17;;;12.95;;
21000;SDS011;10658;50.920;12.238;2024-01-30T21:49:56;19.25;;;11.45;;
21000;SDS011;10658;50.920;12.238;2024-01-30T21:53:57;9.95;;;8.13;;
21000;SDS011;10658;50.920;12.238;2024-01-30T21:57:58;11.98;;;7.43;;
21000;SDS011;10658;50.920;12.238;2024-01-30T22:01:59;12.13;;;8.43;;
21000;SDS011;10658;50.920;12.238;2024-01-30T22:05:59;18.45;;;9.57;;
21000;SDS011;10658;50.920;12.238;2024-01-30T22:10:00;15.25;;;8.52;;
21000;SDS011;10658;50.920;12.238;2024-01-30T22:14:03;15.90;;;9.50;;
21000;SDS011;10658;50.920;12.238;2024-01-30T22:18:04;31.02;;;18.25;;
21000;SDS011;10658;50.920;12.238;2024-01-30T22:22:05;17.25;;;10.52;;
21000;SDS011;10658;50.920;12.238;2024-01-30T22:26:05;15.13;;;10.32;;
21000;SDS011;10658;50.920;12.238;2024-01-30T22:30:06;36.85;;;21.67;;
21000;SDS011;10658;50.920;12.238;2024-01-30T22:34:07;14.40;;;9.27;;
21000;SDS011;10658;50.920;12.238;2024-01-30T22:38:08;18.13;;;10.80;;
21000;SDS011;10658;50.920;12.238;2024-01-30T22:42:09;13.98;;;8.93;;
21000;SDS011;10658;50.920;12.238;2024-01-30T22:46:10;14.23;;;9.13;;
21000;SDS011;10658;50.920;12.238;2024-01-30T22:50:11;17.88;;;9.98;;
21000;SDS011;10658;50.920;12.238;2024-01-30T22:54:11;11.10;;;8.00;;
21000;SDS011;10658;50.920;12.238;2024-01-30T22:58:12;12.05;;;7.32;;
21000;SDS011;10658;50.920;12.238;2024-01-30T23:02:14;12.57;;;7.15;;
21000;SDS011;10658;50.920;12.238;2024-01-30T23:06:15;8.40;;;6.63;;
21000;SDS011;10658;50.920;12.238;2024-01-30T23:10:16;12.20;;;7.38;;
21000;SDS011;10658;50.920;12.238;2024-01-30T23:14:17;15.77;;;7.93;;
21000;SDS011;10658;50.920;12.238;2024-01-30T23:18:18;11.98;;;6.72;;
21000;SDS011;10658;50.920;12.238;2024-01-30T23:22:19;12.10;;;7.28;;
21000;SDS011;10658;50.920;12.238;2024-01-30T23:26:20;11.43;;;6.75;;
21000;SDS011;10658;50.920;12.238;2024-01-30T23:30:20;14.05;;;7.60;;
21000;SDS011;10658;50.920;12.238;2024-01-30T23:34:21;10.85;;;7.82;;
21000;SDS011;10658;50.920;12.238;2024-01-30T23:38:22;12.60;;;8.02;;
21000;SDS011;10658;50.920;12.238;2024-01-30T23:42:22;13.57;;;8.90;;
21000;SDS011;10658;50.920;12.238;2024-01-30T23:46:23;10.60;;;7.25;;
21000;SDS011;10658;50.920;12.238;2024-01-30T23:50:24;11.90;;;7.57;;